sensor_id;sensor_type;location;lat;lon;timestamp;pressure;altitude;pressure_sealevel;temperature;humidity
71621;BME280;59471;42.254;23.102;2023-03-14T00:02:08;96164.72;;;0.52;74.31
71621;BME280;59471;42.254;23.102;2023-03-14T00:04:34;96163.38;;;0.22;76.42
71621;BME280;59471;42.254;23.102;2023-03-14T00:07:00;96155.56;;;-0.14;77.52
71621;BME280;59471;42.254;23.102;2023-03-14T00:09:26;96146.88;;;0.12;76.59
71621;BME280;59471;42.254;23.102;2023-03-14T00:11:55;96150.78;;;0.18;76.36
71621;BME280;59471;42.254;23.102;2023-03-14T00:14:21;96148.59;;;0.25;76.10
71621;BME280;59471;42.254;23.102;2023-03-14T00:16:46;96152.34;;;0.57;75.50
71621;BME280;59471;42.254;23.102;2023-03-14T00:19:12;96133.38;;;0.58;75.72
71621;BME280;59471;42.254;23.102;2023-03-14T00:21:38;96119.50;;;0.72;75.35
71621;BME280;59471;42.254;23.102;2023-03-14T00:24:03;96115.34;;;0.82;74.47
71621;BME280;59471;42.254;23.102;2023-03-14T00:26:29;96108.91;;;0.88;74.38
71621;BME280;59471;42.254;23.102;2023-03-14T00:28:55;96100.69;;;0.83;73.44
71621;BME280;59471;42.254;23.102;2023-03-14T00:31:20;96101.69;;;0.45;75.43
71621;BME280;59471;42.254;23.102;2023-03-14T00:33:46;96094.84;;;0.44;75.63
71621;BME280;59471;42.254;23.102;2023-03-14T00:36:14;96087.97;;;0.68;75.42
71621;BME280;59471;42.254;23.102;2023-03-14T00:38:42;96086.91;;;0.47;74.89
71621;BME280;59471;42.254;23.102;2023-03-14T00:41:13;96090.88;;;0.64;74.62
71621;BME280;59471;42.254;23.102;2023-03-14T00:43:40;96091.72;;;0.76;74.53
71621;BME280;59471;42.254;23.102;2023-03-14T00:46:07;96094.78;;;0.69;74.35
71621;BME280;59471;42.254;23.102;2023-03-14T00:48:33;96092.78;;;0.49;74.88
71621;BME280;59471;42.254;23.102;2023-03-14T00:50:59;96094.09;;;0.79;74.40
71621;BME280;59471;42.254;23.102;2023-03-14T00:53:24;96089.13;;;0.64;74.17
71621;BME280;59471;42.254;23.102;2023-03-14T00:55:50;96101.47;;;0.48;74.44
71621;BME280;59471;42.254;23.102;2023-03-14T00:58:17;96093.88;;;0.34;75.46
71621;BME280;59471;42.254;23.102;2023-03-14T01:00:43;96098.03;;;0.23;75.75
71621;BME280;59471;42.254;23.102;2023-03-14T01:03:11;96089.31;;;0.37;75.90
71621;BME280;59471;42.254;23.102;2023-03-14T01:05:37;96087.69;;;0.36;76.03
71621;BME280;59471;42.254;23.102;2023-03-14T01:08:03;96083.88;;;0.42;75.90
71621;BME280;59471;42.254;23.102;2023-03-14T01:10:30;96082.78;;;0.20;75.96
71621;BME280;59471;42.254;23.102;2023-03-14T01:12:55;96090.44;;;0.46;75.53
71621;BME280;59471;42.254;23.102;2023-03-14T01:15:21;96083.34;;;0.37;75.10
71621;BME280;59471;42.254;23.102;2023-03-14T01:17:47;96085.25;;;0.22;75.52
71621;BME280;59471;42.254;23.102;2023-03-14T01:20:14;96082.78;;;0.20;75.48
71621;BME280;59471;42.254;23.102;2023-03-14T01:22:42;96074.47;;;0.41;75.47
71621;BME280;59471;42.254;23.102;2023-03-14T01:25:14;96069.28;;;0.54;74.65
71621;BME280;59471;42.254;23.102;2023-03-14T01:27:40;96070.00;;;0.32;74.64
71621;BME280;59471;42.254;23.102;2023-03-14T01:30:07;96065.59;;;0.45;74.46
71621;BME280;59471;42.254;23.102;2023-03-14T01:32:33;96066.47;;;0.33;74.49
71621;BME280;59471;42.254;23.102;2023-03-14T01:34:59;96065.50;;;0.22;75.10
71621;BME280;59471;42.254;23.102;2023-03-14T01:37:25;96061.69;;;0.15;75.45
71621;BME280;59471;42.254;23.102;2023-03-14T01:39:50;96056.09;;;0.21;74.83
71621;BME280;59471;42.254;23.102;2023-03-14T01:42:16;96053.31;;;0.25;75.56
71621;BME280;59471;42.254;23.102;2023-03-14T01:44:48;96055.41;;;0.19;74.87
71621;BME280;59471;42.254;23.102;2023-03-14T01:47:18;96052.09;;;0.17;75.56
71621;BME280;59471;42.254;23.102;2023-03-14T01:49:46;96053.41;;;-0.14;76.26
71621;BME280;59471;42.254;23.102;2023-03-14T01:52:33;96050.69;;;0.13;75.51
71621;BME280;59471;42.254;23.102;2023-03-14T01:55:15;96049.06;;;-0.01;75.50
71621;BME280;59471;42.254;23.102;2023-03-14T01:57:58;96045.00;;;-0.29;76.77
71621;BME280;59471;42.254;23.102;2023-03-14T02:00:26;96047.78;;;-0.32;76.25
71621;BME280;59471;42.254;23.102;2023-03-14T02:02:56;96054.03;;;-0.10;75.78
71621;BME280;59471;42.254;23.102;2023-03-14T02:05:31;96058.97;;;-0.07;75.43
71621;BME280;59471;42.254;23.102;2023-03-14T02:07:59;96061.47;;;-0.18;76.45
71621;BME280;59471;42.254;23.102;2023-03-14T02:10:29;96058.50;;;0.12;75.68
71621;BME280;59471;42.254;23.102;2023-03-14T02:13:00;96051.88;;;0.20;75.16
71621;BME280;59471;42.254;23.102;2023-03-14T02:15:28;96047.34;;;0.24;74.89
71621;BME280;59471;42.254;23.102;2023-03-14T02:17:54;96054.59;;;0.06;75.01
71621;BME280;59471;42.254;23.102;2023-03-14T02:22:53;96047.88;;;-0.20;76.19
71621;BME280;59471;42.254;23.102;2023-03-14T02:28:03;96033.31;;;-0.58;76.57
71621;BME280;59471;42.254;23.102;2023-03-14T02:30:30;96030.13;;;-0.49;77.18
71621;BME280;59471;42.254;23.102;2023-03-14T02:33:09;96028.88;;;-0.31;76.57
71621;BME280;59471;42.254;23.102;2023-03-14T02:35:43;96020.97;;;-0.53;77.28
71621;BME280;59471;42.254;23.102;2023-03-14T02:40:54;96011.88;;;-0.33;76.56
71621;BME280;59471;42.254;23.102;2023-03-14T02:43:20;96026.06;;;-0.28;76.33
71621;BME280;59471;42.254;23.102;2023-03-14T02:45:47;96024.31;;;-0.27;76.43
71621;BME280;59471;42.254;23.102;2023-03-14T02:48:29;96019.19;;;-0.40;76.52
71621;BME280;59471;42.254;23.102;2023-03-14T02:50:59;96021.75;;;-0.27;76.11
71621;BME280;59471;42.254;23.102;2023-03-14T02:53:28;96027.28;;;-0.20;75.34
71621;BME280;59471;42.254;23.102;2023-03-14T02:55:58;96025.88;;;-0.25;75.77
71621;BME280;59471;42.254;23.102;2023-03-14T02:58:25;96027.41;;;-0.35;75.69
71621;BME280;59471;42.254;23.102;2023-03-14T03:00:51;96032.69;;;-0.36;76.25
71621;BME280;59471;42.254;23.102;2023-03-14T03:03:17;96037.00;;;-0.37;76.13
71621;BME280;59471;42.254;23.102;2023-03-14T03:05:42;96042.34;;;-0.40;76.09
71621;BME280;59471;42.254;23.102;2023-03-14T03:08:10;96048.66;;;-0.44;75.68
71621;BME280;59471;42.254;23.102;2023-03-14T03:10:36;96054.50;;;-0.67;76.95
71621;BME280;59471;42.254;23.102;2023-03-14T03:13:02;96058.09;;;-0.57;76.66
71621;BME280;59471;42.254;23.102;2023-03-14T03:15:28;96054.91;;;-0.48;76.64
71621;BME280;59471;42.254;23.102;2023-03-14T03:17:54;96048.97;;;-0.61;76.62
71621;BME280;59471;42.254;23.102;2023-03-14T03:20:19;96054.63;;;-0.82;77.15
71621;BME280;59471;42.254;23.102;2023-03-14T03:22:45;96058.44;;;-0.75;77.63
71621;BME280;59471;42.254;23.102;2023-03-14T03:25:10;96067.28;;;-0.79;77.57
71621;BME280;59471;42.254;23.102;2023-03-14T03:27:37;96061.00;;;-0.87;77.93
71621;BME280;59471;42.254;23.102;2023-03-14T03:30:05;96057.41;;;-0.85;77.46
71621;BME280;59471;42.254;23.102;2023-03-14T03:32:31;96059.03;;;-0.71;77.08
71621;BME280;59471;42.254;23.102;2023-03-14T03:34:57;96067.09;;;-0.76;77.11
71621;BME280;59471;42.254;23.102;2023-03-14T03:37:23;96064.59;;;-0.90;77.32
71621;BME280;59471;42.254;23.102;2023-03-14T03:39:52;96066.84;;;-0.73;77.83
71621;BME280;59471;42.254;23.102;2023-03-14T03:42:18;96066.34;;;-0.52;76.60
71621;BME280;59471;42.254;23.102;2023-03-14T03:44:45;96065.63;;;-0.54;76.39
71621;BME280;59471;42.254;23.102;2023-03-14T03:47:11;96064.59;;;-0.64;76.20
71621;BME280;59471;42.254;23.102;2023-03-14T03:49:36;96073.84;;;-0.75;76.97
71621;BME280;59471;42.254;23.102;2023-03-14T03:52:02;96067.03;;;-1.01;77.71
71621;BME280;59471;42.254;23.102;2023-03-14T03:54:27;96072.38;;;-1.04;77.99
71621;BME280;59471;42.254;23.102;2023-03-14T03:56:54;96079.06;;;-0.89;77.08
71621;BME280;59471;42.254;23.102;2023-03-14T03:59:20;96065.63;;;-0.80;77.16
71621;BME280;59471;42.254;23.102;2023-03-14T04:01:45;96075.69;;;-0.77;77.09
71621;BME280;59471;42.254;23.102;2023-03-14T04:04:11;96071.50;;;-0.65;76.72
71621;BME280;59471;42.254;23.102;2023-03-14T04:06:37;96079.41;;;-0.68;76.44
71621;BME280;59471;42.254;23.102;2023-03-14T04:09:03;96072.72;;;-0.83;77.10
71621;BME280;59471;42.254;23.102;2023-03-14T04:11:29;96064.38;;;-0.87;76.77
71621;BME280;59471;42.254;23.102;2023-03-14T04:13:55;96068.25;;;-1.20;77.97
71621;BME280;59471;42.254;23.102;2023-03-14T04:16:23;96070.50;;;-1.15;78.24
71621;BME280;59471;42.254;23.102;2023-03-14T04:18:49;96061.19;;;-1.03;78.42
71621;BME280;59471;42.254;23.102;2023-03-14T04:21:15;96054.44;;;-0.79;77.53
71621;BME280;59471;42.254;23.102;2023-03-14T04:23:41;96048.22;;;-0.76;76.96
71621;BME280;59471;42.254;23.102;2023-03-14T04:26:07;96048.16;;;-0.75;76.77
71621;BME280;59471;42.254;23.102;2023-03-14T04:28:33;96043.81;;;-0.87;77.77
71621;BME280;59471;42.254;23.102;2023-03-14T04:30:58;96033.94;;;-0.80;77.50
71621;BME280;59471;42.254;23.102;2023-03-14T04:33:24;96025.41;;;-0.94;76.98
71621;BME280;59471;42.254;23.102;2023-03-14T04:35:53;96041.13;;;-1.11;78.46
71621;BME280;59471;42.254;23.102;2023-03-14T04:38:19;96031.69;;;-0.85;77.34
71621;BME280;59471;42.254;23.102;2023-03-14T04:40:45;96033.53;;;-0.61;76.73
71621;BME280;59471;42.254;23.102;2023-03-14T04:43:11;96024.88;;;-0.60;76.79
71621;BME280;59471;42.254;23.102;2023-03-14T04:45:41;96024.28;;;-0.77;76.83
71621;BME280;59471;42.254;23.102;2023-03-14T04:48:07;96030.97;;;-0.87;76.64
71621;BME280;59471;42.254;23.102;2023-03-14T04:50:32;96026.75;;;-1.13;78.05
71621;BME280;59471;42.254;23.102;2023-03-14T04:52:58;96029.41;;;-1.02;77.89
71621;BME280;59471;42.254;23.102;2023-03-14T04:55:23;96026.56;;;-0.98;77.60
71621;BME280;59471;42.254;23.102;2023-03-14T04:57:49;96025.50;;;-0.95;77.54
71621;BME280;59471;42.254;23.102;2023-03-14T05:00:15;96030.03;;;-0.86;77.60
71621;BME280;59471;42.254;23.102;2023-03-14T05:02:43;96030.44;;;-0.92;77.58
71621;BME280;59471;42.254;23.102;2023-03-14T05:05:09;96025.06;;;-0.63;76.79
71621;BME280;59471;42.254;23.102;2023-03-14T05:07:35;96021.22;;;-0.82;76.46
71621;BME280;59471;42.254;23.102;2023-03-14T05:10:01;96017.28;;;-0.75;77.11
71621;BME280;59471;42.254;23.102;2023-03-14T05:12:26;96013.97;;;-0.64;77.16
71621;BME280;59471;42.254;23.102;2023-03-14T05:14:52;96012.44;;;-0.66;77.18
71621;BME280;59471;42.254;23.102;2023-03-14T05:17:17;96013.06;;;-0.76;77.41
71621;BME280;59471;42.254;23.102;2023-03-14T05:19:44;96017.50;;;-0.78;77.81
71621;BME280;59471;42.254;23.102;2023-03-14T05:22:10;96011.31;;;-0.75;77.43
71621;BME280;59471;42.254;23.102;2023-03-14T05:24:36;96005.97;;;-0.59;77.26
71621;BME280;59471;42.254;23.102;2023-03-14T05:27:02;96004.22;;;-0.59;77.04
71621;BME280;59471;42.254;23.102;2023-03-14T05:29:28;96000.59;;;-0.56;76.95
71621;BME280;59471;42.254;23.102;2023-03-14T05:31:54;95999.13;;;-0.48;76.92
71621;BME280;59471;42.254;23.102;2023-03-14T05:34:19;96005.34;;;-0.50;77.28
71621;BME280;59471;42.254;23.102;2023-03-14T05:36:45;96012.53;;;-0.55;77.61
71621;BME280;59471;42.254;23.102;2023-03-14T05:39:10;96009.84;;;-0.41;77.75
71621;BME280;59471;42.254;23.102;2023-03-14T05:41:36;96007.97;;;-0.39;77.89
71621;BME280;59471;42.254;23.102;2023-03-14T05:44:02;96000.13;;;-0.25;77.37
71621;BME280;59471;42.254;23.102;2023-03-14T05:46:27;95993.47;;;-0.40;77.67
71621;BME280;59471;42.254;23.102;2023-03-14T05:48:56;96001.97;;;-0.27;78.01
71621;BME280;59471;42.254;23.102;2023-03-14T05:51:23;95993.75;;;-0.32;78.22
71621;BME280;59471;42.254;23.102;2023-03-14T05:53:48;95994.78;;;-0.21;77.10
71621;BME280;59471;42.254;23.102;2023-03-14T05:56:14;95985.69;;;-0.14;77.07
71621;BME280;59471;42.254;23.102;2023-03-14T05:58:40;95984.53;;;-0.10;78.30
71621;BME280;59471;42.254;23.102;2023-03-14T06:01:06;95994.47;;;0.07;77.69
71621;BME280;59471;42.254;23.102;2023-03-14T06:03:32;95995.06;;;0.11;76.76
71621;BME280;59471;42.254;23.102;2023-03-14T06:05:59;96002.81;;;-0.39;77.16
71621;BME280;59471;42.254;23.102;2023-03-14T06:08:24;95998.47;;;-0.26;77.27
71621;BME280;59471;42.254;23.102;2023-03-14T06:10:51;95996.84;;;0.21;75.96
71621;BME280;59471;42.254;23.102;2023-03-14T06:13:17;95996.63;;;0.25;76.29
71621;BME280;59471;42.254;23.102;2023-03-14T06:15:43;95993.03;;;0.51;76.15
71621;BME280;59471;42.254;23.102;2023-03-14T06:18:08;95994.72;;;0.75;75.45
71621;BME280;59471;42.254;23.102;2023-03-14T06:20:38;95994.03;;;0.84;75.09
71621;BME280;59471;42.254;23.102;2023-03-14T06:23:07;95989.59;;;0.97;74.82
71621;BME280;59471;42.254;23.102;2023-03-14T06:25:35;95992.44;;;1.05;73.30
71621;BME280;59471;42.254;23.102;2023-03-14T06:28:01;95991.28;;;1.21;73.70
71621;BME280;59471;42.254;23.102;2023-03-14T06:30:26;95998.50;;;0.93;73.08
71621;BME280;59471;42.254;23.102;2023-03-14T06:32:52;96002.53;;;1.08;72.11
71621;BME280;59471;42.254;23.102;2023-03-14T06:35:18;96004.31;;;1.42;70.78
71621;BME280;59471;42.254;23.102;2023-03-14T06:37:44;96000.00;;;1.42;70.58
71621;BME280;59471;42.254;23.102;2023-03-14T06:40:11;96000.56;;;1.46;71.40
71621;BME280;59471;42.254;23.102;2023-03-14T06:42:39;95997.63;;;1.50;71.28
71621;BME280;59471;42.254;23.102;2023-03-14T06:45:05;96002.91;;;1.60;71.14
71621;BME280;59471;42.254;23.102;2023-03-14T06:47:31;95993.97;;;1.87;71.49
71621;BME280;59471;42.254;23.102;2023-03-14T06:49:56;96001.84;;;1.62;69.08
71621;BME280;59471;42.254;23.102;2023-03-14T06:52:22;95991.97;;;1.79;68.95
71621;BME280;59471;42.254;23.102;2023-03-14T06:54:47;95983.97;;;1.93;68.34
71621;BME280;59471;42.254;23.102;2023-03-14T06:57:13;95982.13;;;1.73;67.33
71621;BME280;59471;42.254;23.102;2023-03-14T06:59:38;95977.91;;;1.83;66.89
71621;BME280;59471;42.254;23.102;2023-03-14T07:02:04;95979.97;;;1.89;66.78
71621;BME280;59471;42.254;23.102;2023-03-14T07:04:29;95974.56;;;2.03;65.49
71621;BME280;59471;42.254;23.102;2023-03-14T07:06:55;95958.81;;;2.06;65.76
71621;BME280;59471;42.254;23.102;2023-03-14T07:09:20;95968.91;;;2.09;65.39
71621;BME280;59471;42.254;23.102;2023-03-14T07:11:46;95957.34;;;2.25;66.76
71621;BME280;59471;42.254;23.102;2023-03-14T07:14:11;95960.34;;;2.41;66.37
71621;BME280;59471;42.254;23.102;2023-03-14T07:16:37;95945.47;;;2.54;66.13
71621;BME280;59471;42.254;23.102;2023-03-14T07:19:03;95939.53;;;2.64;65.43
71621;BME280;59471;42.254;23.102;2023-03-14T07:21:29;95942.94;;;2.85;64.54
71621;BME280;59471;42.254;23.102;2023-03-14T07:23:54;95942.88;;;2.96;64.69
71621;BME280;59471;42.254;23.102;2023-03-14T07:26:20;95944.31;;;3.10;63.92
71621;BME280;59471;42.254;23.102;2023-03-14T07:28:47;95942.88;;;3.27;63.78
71621;BME280;59471;42.254;23.102;2023-03-14T07:31:12;95935.97;;;3.37;63.18
71621;BME280;59471;42.254;23.102;2023-03-14T07:33:38;95918.19;;;3.54;62.57
71621;BME280;59471;42.254;23.102;2023-03-14T07:36:04;95914.94;;;3.71;62.00
71621;BME280;59471;42.254;23.102;2023-03-14T07:38:30;95911.56;;;3.80;62.02
71621;BME280;59471;42.254;23.102;2023-03-14T07:41:03;95909.63;;;3.63;62.08
71621;BME280;59471;42.254;23.102;2023-03-14T07:43:30;95902.53;;;3.65;62.46
71621;BME280;59471;42.254;23.102;2023-03-14T07:45:55;95908.31;;;3.88;61.89
71621;BME280;59471;42.254;23.102;2023-03-14T07:48:21;95913.50;;;3.98;61.06
71621;BME280;59471;42.254;23.102;2023-03-14T07:50:51;95908.59;;;4.33;60.99
71621;BME280;59471;42.254;23.102;2023-03-14T07:53:17;95909.56;;;4.42;60.81
71621;BME280;59471;42.254;23.102;2023-03-14T07:55:43;95901.50;;;4.55;60.84
71621;BME280;59471;42.254;23.102;2023-03-14T07:58:10;95901.88;;;4.79;59.29
71621;BME280;59471;42.254;23.102;2023-03-14T08:00:35;95897.53;;;5.07;57.95
71621;BME280;59471;42.254;23.102;2023-03-14T08:03:01;95896.44;;;5.10;59.07
71621;BME280;59471;42.254;23.102;2023-03-14T08:05:27;95890.69;;;5.16;59.50
71621;BME280;59471;42.254;23.102;2023-03-14T08:07:52;95896.91;;;5.33;58.03
71621;BME280;59471;42.254;23.102;2023-03-14T08:10:18;95895.22;;;5.42;58.85
71621;BME280;59471;42.254;23.102;2023-03-14T08:12:50;95894.16;;;5.34;58.37
71621;BME280;59471;42.254;23.102;2023-03-14T08:15:16;95895.44;;;5.58;58.07
71621;BME280;59471;42.254;23.102;2023-03-14T08:17:42;95900.00;;;5.74;56.28
71621;BME280;59471;42.254;23.102;2023-03-14T08:20:08;95896.13;;;5.78;57.64
71621;BME280;59471;42.254;23.102;2023-03-14T08:22:36;95896.06;;;5.88;56.90
71621;BME280;59471;42.254;23.102;2023-03-14T08:25:02;95894.63;;;6.03;55.96
71621;BME280;59471;42.254;23.102;2023-03-14T08:27:28;95898.69;;;6.23;56.68
71621;BME280;59471;42.254;23.102;2023-03-14T08:29:54;95893.56;;;6.14;55.14
71621;BME280;59471;42.254;23.102;2023-03-14T08:32:19;95888.25;;;6.15;54.84
71621;BME280;59471;42.254;23.102;2023-03-14T08:34:45;95888.53;;;6.12;55.45
71621;BME280;59471;42.254;23.102;2023-03-14T08:37:11;95892.47;;;6.34;53.96
71621;BME280;59471;42.254;23.102;2023-03-14T08:39:37;95876.19;;;6.50;53.87
71621;BME280;59471;42.254;23.102;2023-03-14T08:42:03;95872.00;;;6.57;54.98
71621;BME280;59471;42.254;23.102;2023-03-14T08:44:29;95868.41;;;6.58;54.05
71621;BME280;59471;42.254;23.102;2023-03-14T08:46:54;95855.66;;;6.47;54.02
71621;BME280;59471;42.254;23.102;2023-03-14T08:49:20;95863.31;;;6.74;53.52
71621;BME280;59471;42.254;23.102;2023-03-14T08:51:46;95862.78;;;6.89;52.81
71621;BME280;59471;42.254;23.102;2023-03-14T08:54:12;95855.66;;;6.99;53.52
71621;BME280;59471;42.254;23.102;2023-03-14T08:56:37;95849.59;;;7.25;52.12
71621;BME280;59471;42.254;23.102;2023-03-14T08:59:03;95855.38;;;7.45;52.02
71621;BME280;59471;42.254;23.102;2023-03-14T09:01:29;95843.06;;;7.20;51.44
71621;BME280;59471;42.254;23.102;2023-03-14T09:03:55;95837.59;;;7.40;52.08
71621;BME280;59471;42.254;23.102;2023-03-14T09:06:21;95831.84;;;7.71;52.48
71621;BME280;59471;42.254;23.102;2023-03-14T09:08:47;95830.59;;;8.07;49.94
71621;BME280;59471;42.254;23.102;2023-03-14T09:11:13;95811.34;;;7.76;49.51
71621;BME280;59471;42.254;23.102;2023-03-14T09:13:38;95802.38;;;8.03;49.07
71621;BME280;59471;42.254;23.102;2023-03-14T09:16:05;95805.47;;;8.31;48.39
71621;BME280;59471;42.254;23.102;2023-03-14T09:18:31;95796.03;;;8.30;48.66
71621;BME280;59471;42.254;23.102;2023-03-14T09:20:57;95801.91;;;8.65;49.08
71621;BME280;59471;42.254;23.102;2023-03-14T09:23:22;95790.31;;;8.67;48.24
71621;BME280;59471;42.254;23.102;2023-03-14T09:25:48;95779.69;;;8.77;48.46
71621;BME280;59471;42.254;23.102;2023-03-14T09:28:14;95771.75;;;9.01;48.28
71621;BME280;59471;42.254;23.102;2023-03-14T09:30:39;95771.69;;;9.18;48.42
71621;BME280;59471;42.254;23.102;2023-03-14T09:33:05;95764.16;;;9.23;47.34
71621;BME280;59471;42.254;23.102;2023-03-14T09:35:30;95759.72;;;9.23;47.57
71621;BME280;59471;42.254;23.102;2023-03-14T09:37:56;95742.56;;;9.29;46.56
71621;BME280;59471;42.254;23.102;2023-03-14T09:40:21;95745.13;;;9.37;47.79
71621;BME280;59471;42.254;23.102;2023-03-14T09:42:50;95740.59;;;9.31;46.70
71621;BME280;59471;42.254;23.102;2023-03-14T09:47:57;95733.00;;;9.44;47.42
71621;BME280;59471;42.254;23.102;2023-03-14T09:50:26;95727.50;;;9.62;46.67
71621;BME280;59471;42.254;23.102;2023-03-14T09:52:56;95723.66;;;9.73;47.54
71621;BME280;59471;42.254;23.102;2023-03-14T09:55:27;95715.56;;;10.06;48.23
71621;BME280;59471;42.254;23.102;2023-03-14T09:57:59;95711.41;;;10.34;45.51
71621;BME280;59471;42.254;23.102;2023-03-14T10:00:29;95712.38;;;10.33;44.66
71621;BME280;59471;42.254;23.102;2023-03-14T10:03:00;95704.34;;;10.50;45.13
71621;BME280;59471;42.254;23.102;2023-03-14T10:05:42;95696.22;;;10.74;44.31
71621;BME280;59471;42.254;23.102;2023-03-14T10:08:11;95697.13;;;10.96;43.99
71621;BME280;59471;42.254;23.102;2023-03-14T10:10:38;95690.53;;;10.85;45.14
71621;BME280;59471;42.254;23.102;2023-03-14T10:13:17;95691.84;;;11.11;45.20
71621;BME280;59471;42.254;23.102;2023-03-14T10:15:52;95679.25;;;11.21;45.70
71621;BME280;59471;42.254;23.102;2023-03-14T10:18:29;95679.88;;;10.87;45.01
71621;BME280;59471;42.254;23.102;2023-03-14T10:21:11;95672.63;;;11.25;46.25
71621;BME280;59471;42.254;23.102;2023-03-14T10:23:45;95654.41;;;11.81;47.70
71621;BME280;59471;42.254;23.102;2023-03-14T10:26:16;95654.13;;;12.19;46.57
71621;BME280;59471;42.254;23.102;2023-03-14T10:28:48;95645.34;;;12.34;46.13
71621;BME280;59471;42.254;23.102;2023-03-14T10:31:16;95637.59;;;12.25;45.75
71621;BME280;59471;42.254;23.102;2023-03-14T10:33:58;95631.94;;;12.57;43.88
71621;BME280;59471;42.254;23.102;2023-03-14T10:36:30;95621.91;;;12.39;47.07
71621;BME280;59471;42.254;23.102;2023-03-14T10:39:18;95611.13;;;12.55;45.46
71621;BME280;59471;42.254;23.102;2023-03-14T10:42:28;95603.72;;;12.31;44.15
71621;BME280;59471;42.254;23.102;2023-03-14T10:45:02;95586.13;;;12.31;45.29
71621;BME280;59471;42.254;23.102;2023-03-14T10:47:29;95583.41;;;12.11;44.87
71621;BME280;59471;42.254;23.102;2023-03-14T10:49:56;95574.94;;;12.57;45.33
71621;BME280;59471;42.254;23.102;2023-03-14T10:52:27;95565.50;;;12.69;46.75
71621;BME280;59471;42.254;23.102;2023-03-14T10:55:00;95563.25;;;12.66;45.58
71621;BME280;59471;42.254;23.102;2023-03-14T10:57:28;95559.63;;;12.67;43.25
71621;BME280;59471;42.254;23.102;2023-03-14T10:59:55;95548.53;;;12.79;43.22
71621;BME280;59471;42.254;23.102;2023-03-14T11:02:38;95547.31;;;12.74;43.32
71621;BME280;59471;42.254;23.102;2023-03-14T11:05:43;95532.97;;;12.70;43.42
71621;BME280;59471;42.254;23.102;2023-03-14T11:14:12;95505.38;;;13.34;44.16
71621;BME280;59471;42.254;23.102;2023-03-14T11:16:59;95501.31;;;13.72;43.02
71621;BME280;59471;42.254;23.102;2023-03-14T11:19:43;95499.22;;;13.87;40.72
71621;BME280;59471;42.254;23.102;2023-03-14T11:28:09;95477.50;;;14.11;43.25
71621;BME280;59471;42.254;23.102;2023-03-14T11:30:55;95465.78;;;14.07;36.99
71621;BME280;59471;42.254;23.102;2023-03-14T11:33:38;95457.75;;;14.34;40.42
71621;BME280;59471;42.254;23.102;2023-03-14T11:36:21;95450.16;;;14.12;35.92
71621;BME280;59471;42.254;23.102;2023-03-14T11:38:55;95439.22;;;14.16;36.32
71621;BME280;59471;42.254;23.102;2023-03-14T11:41:32;95426.81;;;14.23;34.86
71621;BME280;59471;42.254;23.102;2023-03-14T11:44:03;95426.09;;;14.47;35.77
71621;BME280;59471;42.254;23.102;2023-03-14T11:46:39;95419.41;;;14.83;35.93
71621;BME280;59471;42.254;23.102;2023-03-14T11:52:27;95398.41;;;15.20;35.29
71621;BME280;59471;42.254;23.102;2023-03-14T11:57:30;95395.13;;;15.68;34.37
71621;BME280;59471;42.254;23.102;2023-03-14T12:00:33;95391.16;;;15.95;33.12
71621;BME280;59471;42.254;23.102;2023-03-14T12:03:02;95380.34;;;16.15;34.72
71621;BME280;59471;42.254;23.102;2023-03-14T12:06:06;95369.28;;;16.49;33.61
71621;BME280;59471;42.254;23.102;2023-03-14T12:09:18;95367.44;;;16.37;31.87
71621;BME280;59471;42.254;23.102;2023-03-14T12:11:56;95352.25;;;16.03;31.18
71621;BME280;59471;42.254;23.102;2023-03-14T12:14:34;95356.56;;;15.67;31.35
71621;BME280;59471;42.254;23.102;2023-03-14T12:17:26;95347.88;;;15.78;33.24
71621;BME280;59471;42.254;23.102;2023-03-14T12:22:48;95350.59;;;16.20;32.54
71621;BME280;59471;42.254;23.102;2023-03-14T12:25:22;95334.22;;;15.99;30.92
71621;BME280;59471;42.254;23.102;2023-03-14T12:30:40;95331.59;;;16.41;32.59
71621;BME280;59471;42.254;23.102;2023-03-14T12:35:41;95320.56;;;16.44;31.10
71621;BME280;59471;42.254;23.102;2023-03-14T12:40:45;95326.81;;;16.62;30.95
71621;BME280;59471;42.254;23.102;2023-03-14T12:43:34;95318.09;;;16.73;31.27
71621;BME280;59471;42.254;23.102;2023-03-14T12:48:44;95312.78;;;16.73;30.95
71621;BME280;59471;42.254;23.102;2023-03-14T12:51:16;95312.63;;;17.10;31.82
71621;BME280;59471;42.254;23.102;2023-03-14T12:53:59;95299.34;;;16.75;31.26
71621;BME280;59471;42.254;23.102;2023-03-14T12:57:29;95293.75;;;16.95;31.05
71621;BME280;59471;42.254;23.102;2023-03-14T13:00:13;95285.22;;;17.16;29.68
71621;BME280;59471;42.254;23.102;2023-03-14T13:02:43;95275.25;;;16.95;31.12
71621;BME280;59471;42.254;23.102;2023-03-14T13:05:12;95279.88;;;17.40;30.53
71621;BME280;59471;42.254;23.102;2023-03-14T13:12:40;95260.84;;;17.02;30.92
71621;BME280;59471;42.254;23.102;2023-03-14T13:15:25;95247.06;;;17.12;30.81
71621;BME280;59471;42.254;23.102;2023-03-14T13:17:54;95242.44;;;16.96;31.79
71621;BME280;59471;42.254;23.102;2023-03-14T13:20:31;95237.63;;;16.69;30.75
71621;BME280;59471;42.254;23.102;2023-03-14T13:22:59;95238.53;;;16.86;31.81
71621;BME280;59471;42.254;23.102;2023-03-14T13:25:30;95232.59;;;16.79;30.07
71621;BME280;59471;42.254;23.102;2023-03-14T13:27:58;95222.69;;;16.86;30.70
71621;BME280;59471;42.254;23.102;2023-03-14T13:30:44;95218.34;;;16.80;29.83
71621;BME280;59471;42.254;23.102;2023-03-14T13:33:14;95211.75;;;16.95;31.78
71621;BME280;59471;42.254;23.102;2023-03-14T13:38:27;95203.38;;;17.38;31.86
71621;BME280;59471;42.254;23.102;2023-03-14T13:40:56;95190.50;;;17.30;30.01
71621;BME280;59471;42.254;23.102;2023-03-14T13:43:34;95192.03;;;17.14;30.07
71621;BME280;59471;42.254;23.102;2023-03-14T13:46:16;95189.31;;;17.09;30.17
71621;BME280;59471;42.254;23.102;2023-03-14T13:48:44;95194.97;;;16.89;30.12
71621;BME280;59471;42.254;23.102;2023-03-14T13:51:13;95183.59;;;16.65;29.84
71621;BME280;59471;42.254;23.102;2023-03-14T13:53:45;95177.28;;;16.78;31.99
71621;BME280;59471;42.254;23.102;2023-03-14T13:56:23;95180.94;;;16.88;30.46